Time;durP1;ratioP1;P1;durP2;ratioP2;P2;SDS_P1;SDS_P2;PMS_P1;PMS_P2;Temp;Humidity;BMP_temperature;BMP_pressure;BME280_temperature;BME280_humidity;BME280_pressure;Samples;Min_cycle;Max_cycle;Signal;HPM_P1;HPM_P2
2023/08/04 00:00:29;;;;;;;1.45;1.40;;;23.00;99.90;;;;;;4178554;28;20083;-57
2023/08/04 00:02:51;;;;;;;;;;;23.00;99.90;;;;;;4180162;28;20044;-56
2023/08/04 00:05:11;;;;;;;1.73;1.63;;;23.00;99.90;;;;;;4181650;28;19933;-56
2023/08/04 00:07:33;;;;;;;1.88;1.73;;;23.00;99.90;;;;;;4180819;28;20283;-56
2023/08/04 00:09:52;;;;;;;5.13;1.98;;;23.00;99.90;;;;;;4181033;28;20052;-56
2023/08/04 00:12:12;;;;;;;2.03;1.92;;;23.00;99.90;;;;;;4180068;28;20072;-56
2023/08/04 00:14:31;;;;;;;1.88;1.77;;;23.00;99.90;;;;;;4179936;28;20080;-56
2023/08/04 00:16:51;;;;;;;3.63;2.28;;;23.00;99.90;;;;;;4178389;28;20241;-57
2023/08/04 00:19:11;;;;;;;2.22;2.13;;;22.90;99.90;;;;;;4177893;28;20137;-57
2023/08/04 00:21:30;;;;;;;4.38;2.05;;;22.90;99.90;;;;;;4182458;28;20136;-56
2023/08/04 00:23:57;;;;;;;3.10;2.40;;;22.90;99.90;;;;;;4180236;28;20106;-56
2023/08/04 00:26:17;;;;;;;3.30;1.63;;;23.00;99.90;;;;;;4178282;28;20056;-57
2023/08/04 00:28:36;;;;;;;4.13;1.75;;;22.90;99.90;;;;;;4180915;28;20044;-56
2023/08/04 00:30:56;;;;;;;1.98;1.33;;;22.90;99.90;;;;;;4179518;28;20053;-57
2023/08/04 00:33:16;;;;;;;2.25;1.75;;;22.90;99.90;;;;;;4179377;28;20057;-56
2023/08/04 00:35:36;;;;;;;2.55;1.67;;;22.90;99.90;;;;;;4179434;28;20059;-56
2023/08/04 00:37:55;;;;;;;3.28;1.70;;;22.90;99.90;;;;;;4180443;28;20043;-56
2023/08/04 00:40:16;;;;;;;1.77;1.67;;;22.90;99.90;;;;;;4180076;28;20236;-56
2023/08/04 00:42:36;;;;;;;4.82;1.65;;;22.90;99.90;;;;;;4175309;28;20370;-57
2023/08/04 00:44:56;;;;;;;2.10;1.90;;;22.90;99.90;;;;;;4179734;28;20059;-56
2023/08/04 00:47:16;;;;;;;2.15;1.98;;;22.90;99.90;;;;;;4181003;28;20048;-57
2023/08/04 00:49:36;;;;;;;2.85;1.90;;;22.90;99.90;;;;;;4176822;28;20063;-57
2023/08/04 00:51:57;;;;;;;2.30;2.20;;;22.80;99.90;;;;;;4177517;28;20044;-56
2023/08/04 00:54:18;;;;;;;4.63;2.33;;;22.80;99.90;;;;;;4178599;28;20423;-56
2023/08/04 00:56:38;;;;;;;4.38;1.98;;;22.80;99.90;;;;;;4183134;28;20238;-56
2023/08/04 00:58:58;;;;;;;5.47;2.33;;;22.80;99.90;;;;;;4177222;28;20105;-56
2023/08/04 01:01:19;;;;;;;1.73;1.63;;;22.70;99.90;;;;;;4179185;28;20044;-56
2023/08/04 01:03:40;;;;;;;2.17;1.42;;;22.80;99.90;;;;;;4174911;28;20362;-56
2023/08/04 01:06:07;;;;;;;4.82;1.67;;;22.80;99.90;;;;;;4176866;28;20083;-56
2023/08/04 01:08:34;;;;;;;2.78;2.58;;;22.80;99.90;;;;;;4178680;28;20048;-57
2023/08/04 01:11:00;;;;;;;2.55;2.00;;;22.70;99.90;;;;;;4183327;28;20064;-56
2023/08/04 01:13:22;;;;;;;2.38;2.28;;;22.70;99.90;;;;;;4173238;28;20115;-56
2023/08/04 01:15:42;;;;;;;2.55;2.28;;;22.70;99.90;;;;;;4177607;28;20044;-56
2023/08/04 01:18:02;;;;;;;2.53;2.42;;;22.60;99.90;;;;;;4177362;28;20237;-56
2023/08/04 01:20:26;;;;;;;2.63;2.33;;;22.60;99.90;;;;;;4173306;28;20091;-56
2023/08/04 01:22:46;;;;;;;2.67;2.45;;;22.60;99.90;;;;;;4180815;28;20060;-56
2023/08/04 01:25:07;;;;;;;2.50;2.33;;;22.60;99.90;;;;;;4177882;28;20087;-56
2023/08/04 01:27:50;;;;;;;5.00;3.03;;;22.50;99.90;;;;;;4177372;28;20053;-56
2023/08/04 01:30:21;;;;;;;3.08;2.88;;;22.40;99.90;;;;;;4179966;28;20044;-56
2023/08/04 01:32:42;;;;;;;2.83;2.72;;;22.40;99.90;;;;;;4189069;28;20139;-56
2023/08/04 01:35:03;;;;;;;4.32;2.35;;;22.40;99.90;;;;;;4178662;28;20405;-57
2023/08/04 01:37:23;;;;;;;3.08;2.90;;;22.40;99.90;;;;;;4177442;28;20229;-56
2023/08/04 01:39:43;;;;;;;3.60;3.40;;;22.30;99.90;;;;;;4183286;28;20116;-56
2023/08/04 01:42:04;;;;;;;3.92;3.50;;;22.30;99.90;;;;;;4174826;28;20137;-56
2023/08/04 01:44:24;;;;;;;3.13;2.92;;;22.30;99.90;;;;;;4175696;28;20044;-57
2023/08/04 01:46:43;;;;;;;4.10;3.92;;;22.20;99.90;;;;;;4180594;28;20087;-57
2023/08/04 01:49:03;;;;;;;2.97;2.85;;;22.20;99.90;;;;;;4179298;28;20101;-56
2023/08/04 01:51:23;;;;;;;3.67;3.47;;;22.20;99.90;;;;;;4180728;28;20048;-56
2023/08/04 01:53:43;;;;;;;3.70;3.50;;;22.30;99.90;;;;;;4178788;28;20088;-56
2023/08/04 01:56:03;;;;;;;3.15;2.95;;;22.30;99.90;;;;;;4181053;28;20044;-56
2023/08/04 01:58:23;;;;;;;3.78;3.47;;;22.30;99.90;;;;;;4185771;28;20099;-56
2023/08/04 02:00:43;;;;;;;5.07;2.72;;;22.30;99.90;;;;;;4185323;28;20131;-57
2023/08/04 02:03:03;;;;;;;4.72;3.30;;;22.30;99.90;;;;;;4183030;28;20053;-56
2023/08/04 02:05:24;;;;;;;3.83;3.60;;;22.30;99.90;;;;;;4187142;28;20071;-56
2023/08/04 02:07:43;;;;;;;3.65;3.45;;;22.30;99.90;;;;;;4176080;28;20055;-56
2023/08/04 02:10:04;;;;;;;4.10;3.85;;;22.20;99.90;;;;;;4180937;28;20052;-56
2023/08/04 02:12:24;;;;;;;3.85;3.55;;;22.20;99.90;;;;;;4182538;28;20095;-56
2023/08/04 02:14:44;;;;;;;4.13;3.40;;;22.20;99.90;;;;;;4177550;28;20129;-56
2023/08/04 02:17:04;;;;;;;3.83;3.20;;;22.30;99.90;;;;;;4181853;28;20133;-56
2023/08/04 02:19:24;;;;;;;2.88;2.55;;;22.30;99.90;;;;;;4180921;28;20048;-57
2023/08/04 02:21:44;;;;;;;3.00;2.80;;;22.30;99.90;;;;;;4175463;28;20083;-57
2023/08/04 02:24:04;;;;;;;3.03;2.83;;;22.30;99.90;;;;;;4179896;28;20080;-56
2023/08/04 02:26:25;;;;;;;3.30;2.85;;;22.30;99.90;;;;;;4179247;28;20048;-56
2023/08/04 02:28:45;;;;;;;2.95;2.85;;;22.30;99.90;;;;;;4176646;28;20143;-56
2023/08/04 02:31:05;;;;;;;3.03;2.92;;;22.30;99.90;;;;;;4187340;28;20071;-56
2023/08/04 02:33:25;;;;;;;3.78;3.40;;;22.30;99.90;;;;;;4181631;28;20052;-56
2023/08/04 02:35:46;;;;;;;3.22;3.05;;;22.20;99.90;;;;;;4186076;28;20083;-56
2023/08/04 02:38:06;;;;;;;6.10;3.30;;;22.30;99.90;;;;;;4175691;28;20072;-56
2023/08/04 02:40:26;;;;;;;3.75;3.50;;;22.30;99.90;;;;;;4181984;28;20044;-56
2023/08/04 02:42:46;;;;;;;3.30;3.10;;;22.30;99.90;;;;;;4179146;28;20091;-56
2023/08/04 02:45:07;;;;;;;5.57;3.35;;;22.30;99.90;;;;;;4175014;28;20060;-57
2023/08/04 02:47:27;;;;;;;2.63;2.42;;;22.30;99.90;;;;;;4181086;28;20040;-56
2023/08/04 02:49:48;;;;;;;3.63;2.70;;;22.30;99.90;;;;;;4176468;28;20056;-56
2023/08/04 02:52:14;;;;;;;8.35;4.68;;;22.30;99.90;;;;;;4175804;28;20088;-56
2023/08/04 02:54:34;;;;;;;3.15;2.88;;;22.30;99.90;;;;;;4178736;28;20056;-56
2023/08/04 02:56:53;;;;;;;2.55;2.42;;;22.30;99.90;;;;;;4180793;28;20052;-56
2023/08/04 02:59:13;;;;;;;4.10;3.22;;;22.30;99.90;;;;;;4185362;28;20079;-56
2023/08/04 03:01:33;;;;;;;4.55;2.83;;;22.30;99.90;;;;;;4186347;28;20052;-57
2023/08/04 03:03:53;;;;;;;3.00;2.67;;;22.20;99.90;;;;;;4180885;28;20052;-57
2023/08/04 03:06:13;;;;;;;3.28;2.70;;;22.20;99.90;;;;;;4186043;28;20052;-57
2023/08/04 03:08:33;;;;;;;2.70;2.50;;;22.20;99.90;;;;;;4174712;28;20391;-56
2023/08/04 03:10:54;;;;;;;2.30;2.15;;;22.20;99.90;;;;;;4179603;28;20371;-56
2023/08/04 03:13:14;;;;;;;1.63;1.25;;;22.20;99.90;;;;;;4179384;28;20402;-56
2023/08/04 03:15:35;;;;;;;2.25;1.20;;;22.00;99.90;;;;;;4178292;28;20072;-57
2023/08/04 03:17:55;;;;;;;3.60;0.90;;;21.90;99.90;;;;;;4180709;28;20060;-56
2023/08/04 03:20:15;;;;;;;5.93;0.90;;;21.80;99.90;;;;;;4180286;28;20340;-56
2023/08/04 03:22:34;;;;;;;1.15;0.90;;;21.80;99.90;;;;;;4184281;28;20044;-56
2023/08/04 03:24:54;;;;;;;1.38;0.95;;;21.80;99.90;;;;;;4178218;28;20091;-57
2023/08/04 03:27:14;;;;;;;3.40;1.10;;;21.70;99.90;;;;;;4179230;28;20068;-57
2023/08/04 03:29:34;;;;;;;1.95;0.90;;;21.60;99.90;;;;;;4177166;28;20063;-57
2023/08/04 03:31:54;;;;;;;2.25;0.80;;;21.50;99.90;;;;;;4181857;28;20064;-56
2023/08/04 03:34:14;;;;;;;2.90;1.45;;;21.50;99.90;;;;;;4180109;28;20059;-56
2023/08/04 03:36:34;;;;;;;1.15;0.90;;;21.40;99.90;;;;;;4184535;28;20236;-56
2023/08/04 03:38:54;;;;;;;0.98;0.80;;;21.20;99.90;;;;;;4174318;28;20060;-57
2023/08/04 03:41:14;;;;;;;1.00;0.90;;;21.20;99.90;;;;;;4180741;28;20084;-57
2023/08/04 03:43:34;;;;;;;1.92;1.10;;;21.20;99.90;;;;;;4177608;28;20450;-57
2023/08/04 03:45:54;;;;;;;1.60;1.00;;;21.10;99.90;;;;;;4173912;28;20083;-57
2023/08/04 03:48:13;;;;;;;1.38;1.00;;;21.00;99.90;;;;;;4179835;28;20040;-56
2023/08/04 03:50:33;;;;;;;1.20;1.00;;;20.90;99.90;;;;;;4176520;28;20374;-57
2023/08/04 03:52:53;;;;;;;1.80;1.13;;;20.70;99.90;;;;;;4189432;28;20136;-56
2023/08/04 03:55:13;;;;;;;0.93;0.90;;;20.60;99.90;;;;;;4174955;28;20267;-56
2023/08/04 03:57:33;;;;;;;7.03;0.90;;;20.60;99.90;;;;;;4179277;28;20237;-56
2023/08/04 03:59:53;;;;;;;6.15;1.10;;;20.50;99.90;;;;;;4185675;28;20104;-56
2023/08/04 04:02:13;;;;;;;3.35;1.00;;;20.40;99.90;;;;;;4178251;28;20060;-57
2023/08/04 04:04:33;;;;;;;0.90;0.80;;;20.40;99.90;;;;;;4179632;28;20052;-56
2023/08/04 04:06:53;;;;;;;3.08;1.05;;;20.40;99.90;;;;;;4180302;28;20092;-56
2023/08/04 04:09:14;;;;;;;0.90;0.90;;;20.40;99.90;;;;;;4173880;28;20101;-57
2023/08/04 04:11:34;;;;;;;1.52;1.00;;;20.30;99.90;;;;;;4179839;28;20132;-57
2023/08/04 04:13:55;;;;;;;5.63;0.90;;;20.40;99.90;;;;;;4178970;28;20056;-57
2023/08/04 04:16:15;;;;;;;9.32;0.90;;;20.30;99.90;;;;;;4174998;28;20117;-57
2023/08/04 04:18:35;;;;;;;3.55;1.27;;;20.20;99.90;;;;;;4175528;28;20044;-56
2023/08/04 04:20:54;;;;;;;6.82;1.38;;;20.00;99.90;;;;;;4176899;28;20287;-57
2023/08/04 04:23:14;;;;;;;1.40;0.95;;;19.90;99.90;;;;;;4183388;28;20047;-57
2023/08/04 04:25:35;;;;;;;4.93;0.90;;;19.80;99.90;;;;;;4177073;28;20056;-57
2023/08/04 04:27:54;;;;;;;4.28;1.42;;;19.70;99.90;;;;;;4179361;28;20356;-57
2023/08/04 04:30:14;;;;;;;5.63;1.40;;;19.60;99.90;;;;;;4183665;28;20056;-56
2023/08/04 04:32:35;;;;;;;2.05;1.35;;;19.60;99.90;;;;;;4175937;28;20044;-57
2023/08/04 04:34:55;;;;;;;2.28;1.00;;;19.50;99.90;;;;;;4177656;28;20116;-57
2023/08/04 04:37:15;;;;;;;1.45;1.08;;;19.40;99.90;;;;;;4179643;28;20036;-56
2023/08/04 04:39:35;;;;;;;3.05;1.02;;;19.30;99.90;;;;;;4174172;28;20052;-57
2023/08/04 04:41:54;;;;;;;1.35;1.25;;;19.20;99.90;;;;;;4177902;28;20355;-56
2023/08/04 04:44:14;;;;;;;5.95;1.42;;;19.30;99.90;;;;;;4179662;28;20079;-56
2023/08/04 04:46:33;;;;;;;1.95;1.23;;;19.20;99.90;;;;;;4180709;28;20316;-57
2023/08/04 04:48:54;;;;;;;4.20;1.38;;;19.10;99.90;;;;;;4178460;28;20061;-56
2023/08/04 04:51:13;;;;;;;2.08;1.10;;;19.00;99.90;;;;;;4181060;28;20055;-56
2023/08/04 04:53:33;;;;;;;3.28;1.02;;;18.90;99.90;;;;;;4182746;28;20048;-57
2023/08/04 04:55:55;;;;;;;7.05;1.00;;;18.80;99.90;;;;;;4178314;28;20151;-57
2023/08/04 04:58:15;;;;;;;3.45;1.45;;;18.70;99.90;;;;;;4177967;28;20039;-57
2023/08/04 05:00:35;;;;;;;2.45;1.38;;;18.80;99.90;;;;;;4183122;28;20112;-57
2023/08/04 05:02:55;;;;;;;2.63;1.00;;;18.70;99.90;;;;;;4174559;28;20104;-57
2023/08/04 05:05:14;;;;;;;1.23;0.90;;;18.60;99.90;;;;;;4177330;28;20136;-56
2023/08/04 05:07:36;;;;;;;1.35;1.25;;;18.50;99.90;;;;;;4178844;28;20048;-57
2023/08/04 05:09:56;;;;;;;1.48;0.90;;;18.50;99.90;;;;;;4173672;28;20459;-56
2023/08/04 05:12:17;;;;;;;0.90;0.90;;;18.50;99.90;;;;;;4178675;28;20103;-56
2023/08/04 05:14:37;;;;;;;1.88;1.00;;;18.40;99.90;;;;;;4178192;28;20055;-56
2023/08/04 05:16:57;;;;;;;0.88;0.88;;;18.40;99.90;;;;;;4175352;28;20056;-56
2023/08/04 05:19:16;;;;;;;2.47;0.90;;;18.40;99.90;;;;;;4177773;28;20071;-57
2023/08/04 05:21:36;;;;;;;0.90;0.90;;;18.40;99.90;;;;;;4176359;28;20229;-61
2023/08/04 05:23:56;;;;;;;3.53;0.82;;;18.50;99.90;;;;;;4182600;28;20056;-60
2023/08/04 05:26:16;;;;;;;3.70;0.80;;;18.60;99.90;;;;;;4183805;28;20232;-60
2023/08/04 05:28:36;;;;;;;0.80;0.80;;;18.70;99.90;;;;;;4178078;28;20087;-60
2023/08/04 05:30:58;;;;;;;1.23;1.10;;;18.60;99.90;;;;;;4182986;28;20048;-61
2023/08/04 05:33:18;;;;;;;1.33;0.90;;;18.70;99.90;;;;;;4173098;28;20052;-60
2023/08/04 05:35:38;;;;;;;1.00;1.00;;;18.60;99.90;;;;;;4179022;28;20048;-60
2023/08/04 05:37:58;;;;;;;1.00;0.90;;;18.50;99.90;;;;;;4178908;28;20096;-60
2023/08/04 05:40:18;;;;;;;1.85;0.90;;;18.60;99.90;;;;;;4174285;28;20055;-61
2023/08/04 05:42:38;;;;;;;2.10;0.80;;;18.60;99.90;;;;;;4174296;28;20192;-61
2023/08/04 05:44:58;;;;;;;2.50;1.17;;;18.60;99.90;;;;;;4179949;28;20098;-61
2023/08/04 05:47:19;;;;;;;1.00;0.90;;;18.40;99.90;;;;;;4180311;28;20056;-61
2023/08/04 05:49:39;;;;;;;1.33;1.00;;;18.40;99.90;;;;;;4175851;28;20047;-63
2023/08/04 05:51:59;;;;;;;3.20;1.02;;;18.50;99.90;;;;;;4177262;28;20391;-62
2023/08/04 05:54:19;;;;;;;1.55;1.00;;;18.50;99.90;;;;;;4182044;28;20052;-62
2023/08/04 05:56:39;;;;;;;2.25;1.02;;;18.70;99.90;;;;;;4178258;28;20048;-62
2023/08/04 05:58:59;;;;;;;2.40;0.90;;;18.60;99.90;;;;;;4176491;28;20091;-61
2023/08/04 06:01:18;;;;;;;1.15;1.00;;;18.50;99.90;;;;;;4182016;28;20147;-61
2023/08/04 06:03:39;;;;;;;4.93;0.95;;;18.30;99.90;;;;;;4174781;28;20367;-61
2023/08/04 06:05:59;;;;;;;2.60;1.08;;;18.20;99.90;;;;;;4171701;28;20072;-61
2023/08/04 06:08:19;;;;;;;1.48;1.00;;;18.10;99.90;;;;;;4176022;28;20144;-61
2023/08/04 06:10:39;;;;;;;3.20;1.65;;;18.10;99.90;;;;;;4180887;28;20121;-61
2023/08/04 06:13:00;;;;;;;2.35;1.13;;;18.00;99.90;;;;;;4179184;28;20129;-60
2023/08/04 06:15:20;;;;;;;1.25;1.10;;;18.00;99.90;;;;;;4176949;28;20245;-60
2023/08/04 06:17:41;;;;;;;2.55;1.10;;;17.90;99.90;;;;;;4183833;28;20052;-61
2023/08/04 06:20:01;;;;;;;1.55;1.45;;;18.00;99.90;;;;;;4178744;28;20064;-61
2023/08/04 06:22:20;;;;;;;1.05;1.00;;;18.10;99.90;;;;;;4179033;28;20116;-61
2023/08/04 06:24:40;;;;;;;1.77;1.08;;;18.10;99.90;;;;;;4184668;28;20071;-60
2023/08/04 06:27:00;;;;;;;3.80;1.38;;;18.20;99.90;;;;;;4178549;28;20395;-61
2023/08/04 06:29:20;;;;;;;2.03;0.90;;;18.30;99.90;;;;;;4188036;28;20106;-60
2023/08/04 06:31:40;;;;;;;2.25;1.00;;;18.40;99.90;;;;;;4183767;28;20075;-60
2023/08/04 06:34:00;;;;;;;0.90;0.90;;;18.40;99.90;;;;;;4178406;28;20060;-60
2023/08/04 06:36:22;;;;;;;1.92;1.20;;;18.30;99.90;;;;;;4180517;28;20368;-60
2023/08/04 06:38:42;;;;;;;1.15;0.90;;;18.20;99.90;;;;;;4179130;28;20064;-60
2023/08/04 06:41:02;;;;;;;4.88;1.00;;;18.30;99.90;;;;;;4177466;28;20064;-61
2023/08/04 06:43:21;;;;;;;3.13;1.00;;;18.20;99.90;;;;;;4179527;28;20099;-61
2023/08/04 06:45:41;;;;;;;1.33;1.13;;;18.30;99.90;;;;;;4176312;28;20043;-60
2023/08/04 06:48:01;;;;;;;1.48;1.35;;;18.30;99.90;;;;;;4182420;28;20090;-60
2023/08/04 06:50:21;;;;;;;1.00;1.00;;;18.40;99.90;;;;;;4181102;28;20092;-60
2023/08/04 06:52:41;;;;;;;1.30;1.20;;;18.40;99.90;;;;;;4179107;28;20048;-61
2023/08/04 06:55:01;;;;;;;0.90;0.90;;;18.40;99.90;;;;;;4184420;28;20056;-60
2023/08/04 06:57:24;;;;;;;1.75;1.10;;;18.30;99.90;;;;;;4180746;28;20402;-60
2023/08/04 06:59:44;;;;;;;2.40;1.42;;;18.30;99.90;;;;;;4180496;28;20447;-60
2023/08/04 07:02:04;;;;;;;3.05;1.25;;;18.30;99.90;;;;;;4183573;28;20252;-60
2023/08/04 07:04:24;;;;;;;1.00;1.00;;;18.30;99.90;;;;;;4176530;28;20076;-60
2023/08/04 07:06:44;;;;;;;1.98;1.13;;;18.30;99.90;;;;;;4175830;28;20048;-60
2023/08/04 07:09:03;;;;;;;2.60;1.20;;;18.30;99.90;;;;;;4178722;28;20095;-61
2023/08/04 07:11:23;;;;;;;2.33;1.20;;;18.30;99.90;;;;;;4180209;28;20407;-60
2023/08/04 07:13:44;;;;;;;1.50;1.08;;;18.50;99.90;;;;;;4175323;28;20044;-61
2023/08/04 07:16:04;;;;;;;1.55;0.93;;;18.50;99.90;;;;;;4176899;28;20245;-61
2023/08/04 07:18:24;;;;;;;1.95;1.35;;;18.40;99.90;;;;;;4178769;28;20244;-61
2023/08/04 07:20:44;;;;;;;3.05;1.48;;;18.40;99.90;;;;;;4180370;28;20164;-60
2023/08/04 07:23:04;;;;;;;3.72;1.30;;;18.40;99.90;;;;;;4178108;28;20057;-60
2023/08/04 07:25:24;;;;;;;3.05;1.35;;;18.40;99.90;;;;;;4183200;28;20240;-61
2023/08/04 07:27:43;;;;;;;1.55;1.10;;;18.40;99.90;;;;;;4174759;28;20048;-61
2023/08/04 07:30:04;;;;;;;3.60;1.50;;;18.40;99.90;;;;;;4176299;28;20056;-60
2023/08/04 07:32:24;;;;;;;1.13;0.90;;;18.30;99.90;;;;;;4181183;28;20271;-61
2023/08/04 07:34:44;;;;;;;3.20;1.90;;;18.40;99.90;;;;;;4177841;28;20060;-60
2023/08/04 07:37:04;;;;;;;1.58;0.90;;;18.20;99.90;;;;;;4175432;28;20040;-60
2023/08/04 07:39:24;;;;;;;1.45;1.02;;;18.00;99.90;;;;;;4180189;28;20056;-61
2023/08/04 07:41:44;;;;;;;1.20;1.10;;;17.80;99.90;;;;;;4181409;28;20095;-60
2023/08/04 07:44:05;;;;;;;1.00;1.00;;;17.60;99.90;;;;;;4181542;28;20053;-60
2023/08/04 07:46:27;;;;;;;0.90;0.90;;;17.40;99.90;;;;;;4176300;28;20124;-59
2023/08/04 07:48:48;;;;;;;;;;;17.50;99.90;;;;;;4182818;28;20075;-60
2023/08/04 07:51:08;;;;;;;1.00;1.00;;;17.40;99.90;;;;;;4187465;28;19923;-59
2023/08/04 07:53:28;;;;;;;1.67;0.90;;;17.40;99.90;;;;;;4177226;28;20059;-59
2023/08/04 07:55:56;;;;;;;1.27;0.90;;;17.40;99.90;;;;;;4182510;28;20072;-59
2023/08/04 07:58:16;;;;;;;1.08;1.00;;;17.50;99.90;;;;;;4177342;28;20052;-59
2023/08/04 08:00:36;;;;;;;0.90;0.90;;;17.60;99.90;;;;;;4175861;28;20078;-59
2023/08/04 08:02:56;;;;;;;5.00;1.00;;;17.70;99.90;;;;;;4179432;28;20300;-59
2023/08/04 08:05:16;;;;;;;1.65;0.93;;;17.70;99.90;;;;;;4176995;28;20261;-59
2023/08/04 08:07:36;;;;;;;1.38;1.00;;;17.80;99.90;;;;;;4174644;28;20088;-59
2023/08/04 08:10:06;;;;;;;0.80;0.80;;;17.90;99.90;;;;;;4182203;28;20087;-59
2023/08/04 08:12:26;;;;;;;0.90;0.90;;;18.00;99.90;;;;;;4182011;28;20236;-59
2023/08/04 08:14:46;;;;;;;1.42;1.33;;;18.10;99.90;;;;;;4180814;28;20102;-59
2023/08/04 08:17:06;;;;;;;0.90;0.90;;;18.10;99.90;;;;;;4176830;28;20059;-59
2023/08/04 08:19:27;;;;;;;1.63;0.90;;;18.20;99.90;;;;;;4182808;28;20052;-59
2023/08/04 08:21:47;;;;;;;1.00;1.00;;;18.30;99.90;;;;;;4177586;28;20064;-58
2023/08/04 08:24:07;;;;;;;1.02;0.90;;;18.30;99.90;;;;;;4176926;28;20053;-58
2023/08/04 08:26:27;;;;;;;0.90;0.90;;;18.40;99.90;;;;;;4182191;28;20048;-58
2023/08/04 08:28:47;;;;;;;1.00;0.90;;;18.20;99.90;;;;;;4176066;28;20402;-58
2023/08/04 08:31:07;;;;;;;0.88;0.88;;;18.20;99.90;;;;;;4175208;28;20092;-59
2023/08/04 08:33:27;;;;;;;1.13;0.90;;;18.10;99.90;;;;;;4177348;28;20052;-58
2023/08/04 08:35:47;;;;;;;0.98;0.90;;;18.20;99.90;;;;;;4176405;28;20105;-57
2023/08/04 08:38:07;;;;;;;1.25;0.95;;;18.30;99.90;;;;;;4177721;28;20267;-57
2023/08/04 08:40:27;;;;;;;1.08;0.80;;;18.30;99.90;;;;;;4181548;28;20308;-58
2023/08/04 08:42:47;;;;;;;0.90;0.90;;;18.40;99.90;;;;;;4178261;28;20084;-57
2023/08/04 08:45:07;;;;;;;2.20;1.95;;;18.50;99.90;;;;;;4173792;28;20048;-58
2023/08/04 08:47:35;;;;;;;1.02;1.00;;;18.30;99.90;;;;;;4177108;28;20052;-58
2023/08/04 08:50:00;;;;;;;0.90;0.90;;;18.20;99.90;;;;;;4182166;28;20139;-58
2023/08/04 08:52:25;;;;;;;3.42;1.00;;;18.30;99.90;;;;;;4176886;28;20366;-57
2023/08/04 08:54:46;;;;;;;2.05;0.90;;;18.50;99.90;;;;;;4176734;28;20052;-58
2023/08/04 08:57:06;;;;;;;1.40;1.00;;;18.50;99.90;;;;;;4180734;28;20048;-57
2023/08/04 08:59:26;;;;;;;0.90;0.90;;;18.60;99.90;;;;;;4174440;28;20048;-57
2023/08/04 09:01:47;;;;;;;1.83;1.20;;;18.70;99.90;;;;;;4178637;28;20091;-57
2023/08/04 09:04:07;;;;;;;1.88;1.08;;;18.70;99.90;;;;;;4180493;28;20048;-57
2023/08/04 09:06:27;;;;;;;1.00;0.90;;;18.70;99.90;;;;;;4176074;28;20099;-57
2023/08/04 09:08:47;;;;;;;1.40;0.90;;;18.70;99.90;;;;;;4177346;28;20056;-57
2023/08/04 09:11:07;;;;;;;0.90;0.90;;;18.90;99.90;;;;;;4174986;28;20399;-57
2023/08/04 09:13:28;;;;;;;0.90;0.90;;;19.10;99.90;;;;;;4181548;28;20048;-57
2023/08/04 09:15:54;;;;;;;2.53;1.45;;;19.10;99.90;;;;;;4186441;28;20397;-57
2023/08/04 09:18:37;;;;;;;1.00;1.00;;;19.40;99.90;;;;;;4177281;28;20289;-57
2023/08/04 09:21:08;;;;;;;1.00;0.90;;;19.60;99.90;;;;;;4182326;28;20087;-57
2023/08/04 09:23:30;;;;;;;0.80;0.80;;;19.80;99.90;;;;;;4173201;28;20325;-57
2023/08/04 09:25:53;;;;;;;2.70;0.90;;;19.80;99.90;;;;;;4177124;28;20173;-57
2023/08/04 09:28:17;;;;;;;0.80;0.80;;;19.70;99.90;;;;;;4179346;28;20080;-57
2023/08/04 09:30:37;;;;;;;2.58;0.90;;;19.70;99.90;;;;;;4173396;28;20056;-57
2023/08/04 09:32:57;;;;;;;1.55;1.08;;;19.80;99.90;;;;;;4178656;28;20078;-57
2023/08/04 09:35:17;;;;;;;3.22;0.90;;;19.70;99.90;;;;;;4174783;28;20052;-57
2023/08/04 09:37:38;;;;;;;3.63;0.90;;;19.70;99.90;;;;;;4174922;28;20068;-57
2023/08/04 09:40:06;;;;;;;1.10;1.00;;;19.60;99.90;;;;;;4177404;28;20060;-56
2023/08/04 09:42:26;;;;;;;1.23;0.93;;;19.60;99.90;;;;;;4178514;28;20367;-56
2023/08/04 09:44:51;;;;;;;6.82;1.20;;;19.50;99.90;;;;;;4186150;28;20127;-57
2023/08/04 09:47:11;;;;;;;0.90;0.90;;;19.40;99.90;;;;;;4178025;28;20079;-56
2023/08/04 09:49:31;;;;;;;1.88;0.90;;;19.30;99.90;;;;;;4180750;28;20044;-56
2023/08/04 09:51:56;;;;;;;1.17;1.00;;;19.30;99.90;;;;;;4182163;28;20052;-57
2023/08/04 09:54:16;;;;;;;2.58;1.08;;;19.30;99.90;;;;;;4175744;28;20052;-56
2023/08/04 09:56:36;;;;;;;0.90;0.90;;;19.30;99.90;;;;;;4182139;28;20420;-57
2023/08/04 09:58:58;;;;;;;1.77;0.90;;;19.10;99.90;;;;;;4178839;28;20067;-57
2023/08/04 10:01:18;;;;;;;0.93;0.88;;;19.10;99.90;;;;;;4175949;28;20085;-57
2023/08/04 10:03:43;;;;;;;1.20;1.10;;;19.10;99.90;;;;;;4188835;28;20351;-57
2023/08/04 10:06:04;;;;;;;1.23;0.90;;;19.20;99.90;;;;;;4179018;28;20323;-56
2023/08/04 10:08:24;;;;;;;1.00;0.95;;;19.30;99.90;;;;;;4185435;28;20044;-57
2023/08/04 10:10:45;;;;;;;1.67;1.00;;;19.40;99.90;;;;;;4184798;28;20048;-57
2023/08/04 10:13:05;;;;;;;1.45;0.80;;;19.40;99.90;;;;;;4181773;28;20052;-56
2023/08/04 10:15:26;;;;;;;0.90;0.90;;;19.40;99.90;;;;;;4187540;28;20043;-57
2023/08/04 10:17:46;;;;;;;0.93;0.82;;;19.50;99.90;;;;;;4175720;28;20225;-57
2023/08/04 10:20:09;;;;;;;1.45;0.80;;;19.50;99.90;;;;;;4180530;28;20083;-56
2023/08/04 10:22:30;;;;;;;;;;;19.70;99.90;;;;;;4182654;28;20045;-56
2023/08/04 10:24:51;;;;;;;1.27;0.90;;;20.00;99.90;;;;;;4177181;28;19951;-56
2023/08/04 10:27:13;;;;;;;1.20;0.85;;;20.20;99.90;;;;;;4181699;28;20368;-56
2023/08/04 10:29:33;;;;;;;1.10;1.00;;;20.30;99.90;;;;;;4180179;28;20067;-55
2023/08/04 10:31:55;;;;;;;3.92;1.00;;;20.30;99.90;;;;;;4182083;28;20084;-55
2023/08/04 10:34:27;;;;;;;3.42;0.90;;;20.50;99.90;;;;;;4179721;28;20060;-55
2023/08/04 10:37:12;;;;;;;1.60;0.70;;;20.60;99.90;;;;;;4180717;28;20053;-54
2023/08/04 10:39:33;;;;;;;1.75;0.80;;;20.70;99.90;;;;;;4186446;28;20094;-55
2023/08/04 10:41:53;;;;;;;0.70;0.70;;;21.10;99.90;;;;;;4177300;28;20165;-54
2023/08/04 10:44:13;;;;;;;0.70;0.70;;;21.30;99.90;;;;;;4182683;28;20060;-55
2023/08/04 10:46:33;;;;;;;0.77;0.77;;;21.50;99.90;;;;;;4154936;28;20052;-55
2023/08/04 10:48:54;;;;;;;1.00;0.80;;;21.60;99.90;;;;;;4171955;28;20260;-55
2023/08/04 10:51:14;;;;;;;2.28;1.20;;;21.30;99.90;;;;;;4180944;28;20055;-54
2023/08/04 10:53:35;;;;;;;1.67;1.33;;;21.30;99.90;;;;;;4177437;28;20044;-55
2023/08/04 10:55:57;;;;;;;2.20;0.80;;;21.20;99.90;;;;;;4175674;28;20108;-55
2023/08/04 10:58:18;;;;;;;1.33;0.90;;;21.40;99.90;;;;;;4180094;28;20048;-55
2023/08/04 11:00:45;;;;;;;0.80;0.80;;;21.60;99.90;;;;;;4178984;28;20044;-55
2023/08/04 11:03:05;;;;;;;0.90;0.90;;;21.80;99.90;;;;;;4174923;28;20053;-55
2023/08/04 11:05:27;;;;;;;2.78;0.80;;;21.60;99.90;;;;;;4184604;28;20141;-54
2023/08/04 11:07:47;;;;;;;1.35;0.70;;;21.80;99.90;;;;;;4181267;28;20114;-55
2023/08/04 11:10:07;;;;;;;0.82;0.77;;;22.10;99.90;;;;;;4158276;28;20057;-55
2023/08/04 11:12:27;;;;;;;1.35;0.70;;;22.40;99.90;;;;;;4177673;28;20060;-55
2023/08/04 11:14:49;;;;;;;0.90;0.90;;;22.50;99.90;;;;;;4181955;28;20107;-55
2023/08/04 11:17:14;;;;;;;0.80;0.80;;;22.60;99.90;;;;;;4182307;28;20104;-55
2023/08/04 11:19:34;;;;;;;1.42;0.70;;;23.00;99.90;;;;;;4182770;28;20048;-57
2023/08/04 11:21:54;;;;;;;0.80;0.70;;;23.10;99.90;;;;;;4180695;28;20103;-55
2023/08/04 11:24:14;;;;;;;0.70;0.70;;;22.90;99.90;;;;;;4176664;28;20132;-55
2023/08/04 11:26:36;;;;;;;0.70;0.70;;;22.80;99.90;;;;;;4175221;28;20102;-55
2023/08/04 11:29:00;;;;;;;2.60;0.70;;;22.80;99.90;;;;;;4161786;28;20071;-55
2023/08/04 11:31:21;;;;;;;0.70;0.70;;;23.00;99.90;;;;;;4178551;28;20126;-55
2023/08/04 11:33:45;;;;;;;1.05;0.70;;;23.10;99.90;;;;;;4184883;28;20139;-55
2023/08/04 11:36:07;;;;;;;2.70;0.98;;;23.00;99.90;;;;;;4184022;28;20064;-55
2023/08/04 11:38:28;;;;;;;0.77;0.70;;;23.20;99.90;;;;;;4156273;28;20258;-55
2023/08/04 11:41:01;;;;;;;0.70;0.70;;;23.40;99.90;;;;;;4188411;28;20245;-55
2023/08/04 11:43:22;;;;;;;0.68;0.68;;;23.60;99.90;;;;;;4177144;28;20063;-55
2023/08/04 11:45:52;;;;;;;3.25;0.70;;;23.80;99.90;;;;;;4182956;28;20055;-55
2023/08/04 11:48:15;;;;;;;2.47;1.10;;;23.80;99.90;;;;;;4177913;28;20048;-55
2023/08/04 11:50:35;;;;;;;0.77;0.77;;;23.90;99.90;;;;;;4175429;28;20051;-55
2023/08/04 11:52:57;;;;;;;0.70;0.70;;;23.90;99.90;;;;;;4179739;28;20108;-55
2023/08/04 11:55:17;;;;;;;1.00;0.93;;;24.10;99.90;;;;;;4173016;28;20260;-55
2023/08/04 11:57:47;;;;;;;4.00;0.70;;;23.90;99.90;;;;;;4174505;28;20084;-55
2023/08/04 12:00:10;;;;;;;0.80;0.80;;;24.00;99.90;;;;;;4178537;28;20067;-55
2023/08/04 12:02:40;;;;;;;3.35;0.70;;;23.80;99.90;;;;;;4177452;28;20048;-55
2023/08/04 12:05:13;;;;;;;1.25;0.77;;;23.60;99.90;;;;;;4178222;28;20052;-55
2023/08/04 12:07:35;;;;;;;0.70;0.70;;;23.40;99.90;;;;;;4178355;28;20052;-55
2023/08/04 12:09:55;;;;;;;0.85;0.63;;;23.40;99.90;;;;;;4141682;28;20085;-55
2023/08/04 12:12:16;;;;;;;1.20;0.70;;;23.40;99.90;;;;;;4169991;28;20052;-55
2023/08/04 12:14:38;;;;;;;0.90;0.80;;;23.30;99.90;;;;;;4168443;28;20064;-55